sensor_id;sensor_type;location;lat;lon;timestamp;pressure;altitude;pressure_sealevel;temperature;humidity
54453;BME280;40363;52.270;10.546;2023-05-14T00:01:58;76740.06;;;-147.06;74.38
54453;BME280;40363;52.270;10.546;2023-05-14T00:04:24;76735.94;;;-147.06;74.19
54453;BME280;40363;52.270;10.546;2023-05-14T00:06:52;76735.94;;;-147.06;75.10
54453;BME280;40363;52.270;10.546;2023-05-14T00:09:19;76756.50;;;-147.06;75.34
54453;BME280;40363;52.270;10.546;2023-05-14T00:11:56;76752.38;;;-147.06;77.42
54453;BME280;40363;52.270;10.546;2023-05-14T00:17:55;76750.34;;;-147.06;76.24
54453;BME280;40363;52.270;10.546;2023-05-14T00:20:21;76750.34;;;-147.06;77.91
54453;BME280;40363;52.270;10.546;2023-05-14T00:22:49;76752.38;;;-147.06;78.34
54453;BME280;40363;52.270;10.546;2023-05-14T00:25:16;76762.66;;;-147.06;78.93
54453;BME280;40363;52.270;10.546;2023-05-14T00:27:42;76752.38;;;-147.06;78.66
54453;BME280;40363;52.270;10.546;2023-05-14T00:30:10;76760.63;;;-147.06;79.37
54453;BME280;40363;52.270;10.546;2023-05-14T00:32:37;76764.72;;;-147.06;79.86
54453;BME280;40363;52.270;10.546;2023-05-14T00:35:04;76775.00;;;-147.06;79.67
54453;BME280;40363;52.270;10.546;2023-05-14T00:37:31;76783.22;;;-147.06;79.61
54453;BME280;40363;52.270;10.546;2023-05-14T00:40:01;76785.28;;;-147.06;81.25
54453;BME280;40363;52.270;10.546;2023-05-14T00:42:28;76805.84;;;-147.06;81.57
54453;BME280;40363;52.270;10.546;2023-05-14T00:44:54;76809.94;;;-147.06;81.73
54453;BME280;40363;52.270;10.546;2023-05-14T00:47:21;76824.34;;;-147.06;81.80
54453;BME280;40363;52.270;10.546;2023-05-14T00:49:48;76832.56;;;-147.06;82.97
54453;BME280;40363;52.270;10.546;2023-05-14T00:52:15;76834.63;;;-147.06;83.70
54453;BME280;40363;52.270;10.546;2023-05-14T00:54:43;76844.88;;;-147.06;84.07
54453;BME280;40363;52.270;10.546;2023-05-14T00:57:13;76851.06;;;-147.06;84.09
54453;BME280;40363;52.270;10.546;2023-05-14T00:59:40;76851.06;;;-147.06;84.42
54453;BME280;40363;52.270;10.546;2023-05-14T01:02:07;76859.28;;;-147.06;85.79
54453;BME280;40363;52.270;10.546;2023-05-14T01:04:34;76869.56;;;-147.06;87.06
54453;BME280;40363;52.270;10.546;2023-05-14T01:07:08;76865.44;;;-147.06;88.22
54453;BME280;40363;52.270;10.546;2023-05-14T01:09:41;76883.94;;;-147.06;89.38
54453;BME280;40363;52.270;10.546;2023-05-14T01:12:16;76896.28;;;-147.06;90.50
54453;BME280;40363;52.270;10.546;2023-05-14T01:14:52;76902.44;;;-147.06;91.29
54453;BME280;40363;52.270;10.546;2023-05-14T01:17:21;76908.63;;;-147.06;92.43
54453;BME280;40363;52.270;10.546;2023-05-14T01:19:49;76918.88;;;-147.06;93.33
54453;BME280;40363;52.270;10.546;2023-05-14T01:22:18;76920.94;;;-147.06;93.81
54453;BME280;40363;52.270;10.546;2023-05-14T01:24:45;76933.28;;;-147.06;94.47
54453;BME280;40363;52.270;10.546;2023-05-14T01:27:16;76939.44;;;-147.06;95.26
54453;BME280;40363;52.270;10.546;2023-05-14T01:29:47;76937.38;;;-147.06;96.18
54453;BME280;40363;52.270;10.546;2023-05-14T01:32:16;76951.78;;;-147.06;96.57
54453;BME280;40363;52.270;10.546;2023-05-14T01:34:46;76955.88;;;-147.06;97.43
54453;BME280;40363;52.270;10.546;2023-05-14T01:37:14;76953.84;;;-147.06;97.72
54453;BME280;40363;52.270;10.546;2023-05-14T01:39:42;76949.72;;;-147.06;97.65
54453;BME280;40363;52.270;10.546;2023-05-14T01:42:09;76949.72;;;-147.06;98.02
54453;BME280;40363;52.270;10.546;2023-05-14T01:44:36;76947.66;;;-147.06;98.31
54453;BME280;40363;52.270;10.546;2023-05-14T01:47:03;76960.00;;;-147.06;98.84
54453;BME280;40363;52.270;10.546;2023-05-14T01:49:30;76964.13;;;-147.06;99.14
54453;BME280;40363;52.270;10.546;2023-05-14T01:51:57;76964.13;;;-147.06;99.90
54453;BME280;40363;52.270;10.546;2023-05-14T01:54:23;76960.00;;;-147.06;99.14
54453;BME280;40363;52.270;10.546;2023-05-14T01:56:52;76978.50;;;-147.06;99.48
54453;BME280;40363;52.270;10.546;2023-05-14T01:59:18;76990.84;;;-147.06;100.00
54453;BME280;40363;52.270;10.546;2023-05-14T02:01:45;77013.44;;;-147.06;100.00
54453;BME280;40363;52.270;10.546;2023-05-14T02:04:11;77005.22;;;-147.06;100.00
54453;BME280;40363;52.270;10.546;2023-05-14T02:06:38;77019.63;;;-147.06;100.00
54453;BME280;40363;52.270;10.546;2023-05-14T02:09:05;77019.63;;;-147.06;100.00
54453;BME280;40363;52.270;10.546;2023-05-14T02:11:31;77021.66;;;-147.06;100.00
54453;BME280;40363;52.270;10.546;2023-05-14T02:13:59;77021.66;;;-147.06;100.00
54453;BME280;40363;52.270;10.546;2023-05-14T02:16:26;77044.28;;;-147.06;100.00
54453;BME280;40363;52.270;10.546;2023-05-14T02:18:53;77052.50;;;-147.06;100.00
54453;BME280;40363;52.270;10.546;2023-05-14T02:21:19;77056.63;;;-147.06;100.00
54453;BME280;40363;52.270;10.546;2023-05-14T02:23:46;77064.84;;;-147.06;100.00
54453;BME280;40363;52.270;10.546;2023-05-14T02:26:13;77060.72;;;-147.06;100.00
54453;BME280;40363;52.270;10.546;2023-05-14T02:28:40;77056.63;;;-147.06;100.00
54453;BME280;40363;52.270;10.546;2023-05-14T02:31:08;77042.22;;;-147.06;100.00
54453;BME280;40363;52.270;10.546;2023-05-14T02:33:35;77050.44;;;-147.06;100.00
54453;BME280;40363;52.270;10.546;2023-05-14T02:36:01;77056.63;;;-147.06;100.00
54453;BME280;40363;52.270;10.546;2023-05-14T02:38:28;77048.41;;;-147.06;100.00
54453;BME280;40363;52.270;10.546;2023-05-14T02:40:55;77040.16;;;-147.06;100.00
54453;BME280;40363;52.270;10.546;2023-05-14T02:43:21;77042.22;;;-147.06;100.00
54453;BME280;40363;52.270;10.546;2023-05-14T02:45:48;77036.06;;;-147.06;100.00
54453;BME280;40363;52.270;10.546;2023-05-14T02:48:16;77038.13;;;-147.06;100.00
54453;BME280;40363;52.270;10.546;2023-05-14T02:50:42;77036.06;;;-147.06;100.00
54453;BME280;40363;52.270;10.546;2023-05-14T02:53:09;77048.41;;;-147.06;100.00
54453;BME280;40363;52.270;10.546;2023-05-14T02:55:36;77046.34;;;-147.06;100.00
54453;BME280;40363;52.270;10.546;2023-05-14T02:58:02;77048.41;;;-147.06;100.00
54453;BME280;40363;52.270;10.546;2023-05-14T03:00:29;77048.41;;;-147.06;100.00
54453;BME280;40363;52.270;10.546;2023-05-14T03:02:56;77060.72;;;-147.06;100.00
54453;BME280;40363;52.270;10.546;2023-05-14T03:05:24;77046.34;;;-147.06;100.00
54453;BME280;40363;52.270;10.546;2023-05-14T03:07:50;77071.00;;;-147.06;100.00
54453;BME280;40363;52.270;10.546;2023-05-14T03:10:18;77081.28;;;-147.06;100.00
54453;BME280;40363;52.270;10.546;2023-05-14T03:12:45;77083.34;;;-147.06;100.00
54453;BME280;40363;52.270;10.546;2023-05-14T03:15:12;77093.63;;;-147.06;100.00
54453;BME280;40363;52.270;10.546;2023-05-14T03:17:39;77085.41;;;-147.06;100.00
54453;BME280;40363;52.270;10.546;2023-05-14T03:20:06;77091.56;;;-147.06;100.00
54453;BME280;40363;52.270;10.546;2023-05-14T03:22:34;77097.72;;;-147.06;100.00
54453;BME280;40363;52.270;10.546;2023-05-14T03:25:01;77099.78;;;-147.06;100.00
54453;BME280;40363;52.270;10.546;2023-05-14T03:27:28;77110.06;;;-147.06;100.00
54453;BME280;40363;52.270;10.546;2023-05-14T03:29:57;77097.72;;;-147.06;100.00
54453;BME280;40363;52.270;10.546;2023-05-14T03:32:23;77089.50;;;-147.06;100.00
54453;BME280;40363;52.270;10.546;2023-05-14T03:37:19;77122.41;;;-147.06;100.00
54453;BME280;40363;52.270;10.546;2023-05-14T03:39:47;77130.63;;;-147.06;100.00
54453;BME280;40363;52.270;10.546;2023-05-14T03:42:14;77122.41;;;-147.06;100.00
54453;BME280;40363;52.270;10.546;2023-05-14T03:44:40;77105.94;;;-147.06;100.00
54453;BME280;40363;52.270;10.546;2023-05-14T03:47:07;77122.41;;;-147.06;100.00
54453;BME280;40363;52.270;10.546;2023-05-14T03:49:33;77114.19;;;-147.06;100.00
54453;BME280;40363;52.270;10.546;2023-05-14T03:52:02;77110.06;;;-147.06;100.00
54453;BME280;40363;52.270;10.546;2023-05-14T03:54:28;77118.28;;;-147.06;100.00
54453;BME280;40363;52.270;10.546;2023-05-14T03:56:56;77118.28;;;-147.06;100.00
54453;BME280;40363;52.270;10.546;2023-05-14T03:59:23;77120.34;;;-147.06;100.00
54453;BME280;40363;52.270;10.546;2023-05-14T04:01:50;77112.13;;;-147.06;100.00
54453;BME280;40363;52.270;10.546;2023-05-14T04:04:16;77108.00;;;-147.06;100.00
54453;BME280;40363;52.270;10.546;2023-05-14T04:06:43;77108.00;;;-147.06;100.00
54453;BME280;40363;52.270;10.546;2023-05-14T04:09:09;77101.84;;;-147.06;100.00
54453;BME280;40363;52.270;10.546;2023-05-14T04:11:36;77093.63;;;-147.06;100.00
54453;BME280;40363;52.270;10.546;2023-05-14T04:14:04;77089.50;;;-147.06;100.00
54453;BME280;40363;52.270;10.546;2023-05-14T04:16:30;77085.41;;;-147.06;100.00
54453;BME280;40363;52.270;10.546;2023-05-14T04:18:57;77081.28;;;-147.06;100.00
54453;BME280;40363;52.270;10.546;2023-05-14T04:21:23;77075.13;;;-147.06;100.00
54453;BME280;40363;52.270;10.546;2023-05-14T04:23:50;77068.94;;;-147.06;100.00
54453;BME280;40363;52.270;10.546;2023-05-14T04:26:16;77048.41;;;-147.06;100.00
54453;BME280;40363;52.270;10.546;2023-05-14T04:28:43;77048.41;;;-147.06;100.00
54453;BME280;40363;52.270;10.546;2023-05-14T04:31:11;77044.28;;;-147.06;100.00
54453;BME280;40363;52.270;10.546;2023-05-14T04:33:38;77036.06;;;-147.06;100.00
54453;BME280;40363;52.270;10.546;2023-05-14T04:36:04;77023.72;;;-147.06;100.00
54453;BME280;40363;52.270;10.546;2023-05-14T04:38:31;77015.50;;;-147.06;100.00
54453;BME280;40363;52.270;10.546;2023-05-14T04:40:58;76999.06;;;-147.06;100.00
54453;BME280;40363;52.270;10.546;2023-05-14T04:43:24;76986.72;;;-147.06;99.80
54453;BME280;40363;52.270;10.546;2023-05-14T04:45:51;76978.50;;;-147.06;99.50
54453;BME280;40363;52.270;10.546;2023-05-14T04:48:19;76968.22;;;-147.06;99.30
54453;BME280;40363;52.270;10.546;2023-05-14T04:50:45;76962.06;;;-147.06;98.42
54453;BME280;40363;52.270;10.546;2023-05-14T04:53:12;76947.66;;;-147.06;98.35
54453;BME280;40363;52.270;10.546;2023-05-14T04:55:38;76943.56;;;-147.06;98.31
54453;BME280;40363;52.270;10.546;2023-05-14T04:58:05;76943.56;;;-147.06;98.90
54453;BME280;40363;52.270;10.546;2023-05-14T05:00:32;76929.16;;;-147.06;98.47
54453;BME280;40363;52.270;10.546;2023-05-14T05:02:58;76918.88;;;-147.06;98.17
54453;BME280;40363;52.270;10.546;2023-05-14T05:05:26;76912.72;;;-147.06;98.08
54453;BME280;40363;52.270;10.546;2023-05-14T05:07:53;76896.28;;;-147.06;97.87
54453;BME280;40363;52.270;10.546;2023-05-14T05:10:20;76886.00;;;-147.06;97.72
54453;BME280;40363;52.270;10.546;2023-05-14T05:12:46;76877.78;;;-147.06;97.09
54453;BME280;40363;52.270;10.546;2023-05-14T05:15:13;76859.28;;;-147.06;96.85
54453;BME280;40363;52.270;10.546;2023-05-14T05:17:40;76855.16;;;-147.06;96.40
54453;BME280;40363;52.270;10.546;2023-05-14T05:20:08;76834.63;;;-147.06;96.25
54453;BME280;40363;52.270;10.546;2023-05-14T05:22:36;76830.50;;;-147.06;94.29
54453;BME280;40363;52.270;10.546;2023-05-14T05:25:03;76826.38;;;-147.06;93.18
54453;BME280;40363;52.270;10.546;2023-05-14T05:27:30;76801.72;;;-147.06;93.44
54453;BME280;40363;52.270;10.546;2023-05-14T05:29:57;76805.84;;;-147.06;91.76
54453;BME280;40363;52.270;10.546;2023-05-14T05:32:24;76805.84;;;-147.06;92.25
54453;BME280;40363;52.270;10.546;2023-05-14T05:34:50;76785.28;;;-147.06;91.98
54453;BME280;40363;52.270;10.546;2023-05-14T05:37:17;76766.78;;;-147.06;91.31
54453;BME280;40363;52.270;10.546;2023-05-14T05:39:45;76768.84;;;-147.06;90.46
54453;BME280;40363;52.270;10.546;2023-05-14T05:42:12;76740.06;;;-147.06;91.24
54453;BME280;40363;52.270;10.546;2023-05-14T05:44:39;76738.00;;;-147.06;90.73
54453;BME280;40363;52.270;10.546;2023-05-14T05:47:06;76709.22;;;-147.06;88.08
54453;BME280;40363;52.270;10.546;2023-05-14T05:49:32;76698.94;;;-147.06;88.93
54453;BME280;40363;52.270;10.546;2023-05-14T05:52:01;76698.94;;;-147.06;86.04
54453;BME280;40363;52.270;10.546;2023-05-14T05:54:30;76678.41;;;-147.06;85.58
54453;BME280;40363;52.270;10.546;2023-05-14T05:56:58;76682.50;;;-147.06;85.18
54453;BME280;40363;52.270;10.546;2023-05-14T05:59:25;76668.13;;;-147.06;84.90
54453;BME280;40363;52.270;10.546;2023-05-14T06:01:52;76655.78;;;-147.06;84.32
54453;BME280;40363;52.270;10.546;2023-05-14T06:04:18;76633.16;;;-147.06;83.66
54453;BME280;40363;52.270;10.546;2023-05-14T06:06:45;76653.72;;;-147.06;82.29
54453;BME280;40363;52.270;10.546;2023-05-14T06:09:12;76645.50;;;-147.06;81.92
54453;BME280;40363;52.270;10.546;2023-05-14T06:11:38;76641.41;;;-147.06;82.04
54453;BME280;40363;52.270;10.546;2023-05-14T06:14:06;76639.34;;;-147.06;82.04
54453;BME280;40363;52.270;10.546;2023-05-14T06:16:33;76649.63;;;-147.06;83.51
54453;BME280;40363;52.270;10.546;2023-05-14T06:18:59;76602.34;;;-147.06;82.77
54453;BME280;40363;52.270;10.546;2023-05-14T06:21:26;76575.63;;;-147.06;81.65
54453;BME280;40363;52.270;10.546;2023-05-14T06:23:52;76575.63;;;-147.06;81.95
54453;BME280;40363;52.270;10.546;2023-05-14T06:26:19;76569.44;;;-147.06;80.86
54453;BME280;40363;52.270;10.546;2023-05-14T06:28:46;76548.91;;;-147.06;81.02
54453;BME280;40363;52.270;10.546;2023-05-14T06:31:14;76577.69;;;-147.06;80.23
54453;BME280;40363;52.270;10.546;2023-05-14T06:33:40;76546.84;;;-147.06;79.70
54453;BME280;40363;52.270;10.546;2023-05-14T06:36:07;76571.50;;;-147.06;79.00
54453;BME280;40363;52.270;10.546;2023-05-14T06:38:34;76590.00;;;-147.06;79.92
54453;BME280;40363;52.270;10.546;2023-05-14T06:41:01;76548.91;;;-147.06;78.37
54453;BME280;40363;52.270;10.546;2023-05-14T06:43:28;76530.41;;;-147.06;78.00
54453;BME280;40363;52.270;10.546;2023-05-14T06:45:54;76565.34;;;-147.06;79.88
54453;BME280;40363;52.270;10.546;2023-05-14T06:48:22;76526.28;;;-147.06;78.52
54453;BME280;40363;52.270;10.546;2023-05-14T06:50:52;76528.34;;;-147.06;80.05
54453;BME280;40363;52.270;10.546;2023-05-14T06:53:18;76507.78;;;-147.06;78.55
54453;BME280;40363;52.270;10.546;2023-05-14T06:55:46;76516.00;;;-147.06;78.42
54453;BME280;40363;52.270;10.546;2023-05-14T06:58:12;76431.75;;;-147.06;76.39
54453;BME280;40363;52.270;10.546;2023-05-14T07:00:39;76509.84;;;-147.06;77.55
54453;BME280;40363;52.270;10.546;2023-05-14T07:03:05;76474.91;;;-147.06;77.41
54453;BME280;40363;52.270;10.546;2023-05-14T07:05:33;76419.41;;;-147.06;77.20
54453;BME280;40363;52.270;10.546;2023-05-14T07:08:00;76345.41;;;-147.06;75.37
54453;BME280;40363;52.270;10.546;2023-05-14T07:10:27;76304.31;;;-147.06;72.19
54453;BME280;40363;52.270;10.546;2023-05-14T07:12:53;76291.97;;;-147.06;72.04
54453;BME280;40363;52.270;10.546;2023-05-14T07:15:20;76386.53;;;-147.06;74.41
54453;BME280;40363;52.270;10.546;2023-05-14T07:17:46;76289.94;;;-147.06;73.36
54453;BME280;40363;52.270;10.546;2023-05-14T07:20:13;76246.75;;;-147.06;71.11
54453;BME280;40363;52.270;10.546;2023-05-14T07:22:40;76267.31;;;-147.06;71.22
54453;BME280;40363;52.270;10.546;2023-05-14T07:25:07;76291.97;;;-147.06;72.62
54453;BME280;40363;52.270;10.546;2023-05-14T07:27:34;76283.75;;;-147.06;72.53
54453;BME280;40363;52.270;10.546;2023-05-14T07:30:01;76255.00;;;-147.06;72.60
54453;BME280;40363;52.270;10.546;2023-05-14T07:32:27;76215.94;;;-147.06;70.82
54453;BME280;40363;52.270;10.546;2023-05-14T07:34:54;76181.00;;;-147.06;69.99
54453;BME280;40363;52.270;10.546;2023-05-14T07:37:20;76119.34;;;-147.06;67.40
54453;BME280;40363;52.270;10.546;2023-05-14T07:39:48;76008.38;;;-147.06;63.57
54453;BME280;40363;52.270;10.546;2023-05-14T07:42:15;75981.66;;;-147.06;63.18
54453;BME280;40363;52.270;10.546;2023-05-14T07:44:41;76039.19;;;-147.06;63.30
54453;BME280;40363;52.270;10.546;2023-05-14T07:47:08;76076.19;;;-147.06;64.83
54453;BME280;40363;52.270;10.546;2023-05-14T07:49:35;76067.97;;;-147.06;64.73
54453;BME280;40363;52.270;10.546;2023-05-14T07:52:01;76067.97;;;-147.06;64.70
54453;BME280;40363;52.270;10.546;2023-05-14T07:54:28;76045.34;;;-147.06;63.81
54453;BME280;40363;52.270;10.546;2023-05-14T07:56:56;76082.34;;;-147.06;64.50
54453;BME280;40363;52.270;10.546;2023-05-14T07:59:22;76084.41;;;-147.06;64.68
54453;BME280;40363;52.270;10.546;2023-05-14T08:01:49;76047.41;;;-147.06;64.11
54453;BME280;40363;52.270;10.546;2023-05-14T08:04:15;76053.56;;;-147.06;62.45
54453;BME280;40363;52.270;10.546;2023-05-14T08:06:42;76037.13;;;-147.06;62.40
54453;BME280;40363;52.270;10.546;2023-05-14T08:09:08;76041.25;;;-147.06;62.83
54453;BME280;40363;52.270;10.546;2023-05-14T08:11:35;76117.28;;;-147.06;62.37
54453;BME280;40363;52.270;10.546;2023-05-14T08:14:03;76061.78;;;-147.06;62.78
54453;BME280;40363;52.270;10.546;2023-05-14T08:16:30;75979.59;;;-147.06;60.88
54453;BME280;40363;52.270;10.546;2023-05-14T08:18:56;75895.34;;;-147.06;58.69
54453;BME280;40363;52.270;10.546;2023-05-14T08:21:23;75806.97;;;-147.06;57.38
54453;BME280;40363;52.270;10.546;2023-05-14T08:23:49;75780.25;;;-147.06;57.58
54453;BME280;40363;52.270;10.546;2023-05-14T08:26:16;75880.94;;;-147.06;58.75
54453;BME280;40363;52.270;10.546;2023-05-14T08:28:43;75870.66;;;-147.06;60.24
54453;BME280;40363;52.270;10.546;2023-05-14T08:31:11;75932.31;;;-147.06;59.51
54453;BME280;40363;52.270;10.546;2023-05-14T08:33:39;75897.38;;;-147.06;58.41
54453;BME280;40363;52.270;10.546;2023-05-14T08:36:06;75957.00;;;-147.06;60.03
54453;BME280;40363;52.270;10.546;2023-05-14T08:38:33;75969.31;;;-147.06;61.08
54453;BME280;40363;52.270;10.546;2023-05-14T08:41:00;75905.59;;;-147.06;60.73
54453;BME280;40363;52.270;10.546;2023-05-14T08:43:30;75901.50;;;-147.06;61.16
54453;BME280;40363;52.270;10.546;2023-05-14T08:46:04;75909.72;;;-147.06;55.25
54453;BME280;40363;52.270;10.546;2023-05-14T08:48:33;75944.66;;;-147.06;54.80
54453;BME280;40363;52.270;10.546;2023-05-14T08:51:00;75897.38;;;-147.06;55.85
54453;BME280;40363;52.270;10.546;2023-05-14T08:53:27;75880.94;;;-147.06;54.25
54453;BME280;40363;52.270;10.546;2023-05-14T08:55:54;75934.38;;;-147.06;55.29
54453;BME280;40363;52.270;10.546;2023-05-14T08:58:20;75954.94;;;-147.06;54.25
54453;BME280;40363;52.270;10.546;2023-05-14T09:00:47;75967.25;;;-147.06;55.39
54453;BME280;40363;52.270;10.546;2023-05-14T09:03:14;76022.75;;;-147.06;56.15
54453;BME280;40363;52.270;10.546;2023-05-14T09:05:42;75897.38;;;-147.06;55.22
54453;BME280;40363;52.270;10.546;2023-05-14T09:08:10;75806.97;;;-147.06;53.75
54453;BME280;40363;52.270;10.546;2023-05-14T09:10:36;75772.03;;;-147.06;52.86
54453;BME280;40363;52.270;10.546;2023-05-14T09:13:04;75728.88;;;-147.06;51.44
54453;BME280;40363;52.270;10.546;2023-05-14T09:15:33;75704.22;;;-147.06;50.00
54453;BME280;40363;52.270;10.546;2023-05-14T09:18:00;75728.88;;;-147.06;49.33
54453;BME280;40363;52.270;10.546;2023-05-14T09:20:26;75827.50;;;-147.06;49.86
54453;BME280;40363;52.270;10.546;2023-05-14T09:22:54;75741.22;;;-147.06;49.53
54453;BME280;40363;52.270;10.546;2023-05-14T09:25:25;75804.91;;;-147.06;48.66
54453;BME280;40363;52.270;10.546;2023-05-14T09:27:52;75901.50;;;-147.06;49.68
54453;BME280;40363;52.270;10.546;2023-05-14T09:30:19;75796.69;;;-147.06;49.52
54453;BME280;40363;52.270;10.546;2023-05-14T09:32:46;75737.09;;;-147.06;49.74
54453;BME280;40363;52.270;10.546;2023-05-14T09:35:16;75794.63;;;-147.06;49.02
54453;BME280;40363;52.270;10.546;2023-05-14T09:37:44;75747.38;;;-147.06;48.44
54453;BME280;40363;52.270;10.546;2023-05-14T09:40:13;75687.78;;;-147.06;47.85
54453;BME280;40363;52.270;10.546;2023-05-14T09:42:40;75693.94;;;-147.06;47.26
54453;BME280;40363;52.270;10.546;2023-05-14T09:45:08;75739.16;;;-147.06;47.29
54453;BME280;40363;52.270;10.546;2023-05-14T09:47:35;75642.56;;;-147.06;46.10
54453;BME280;40363;52.270;10.546;2023-05-14T09:50:02;75609.69;;;-147.06;47.24
54453;BME280;40363;52.270;10.546;2023-05-14T09:52:29;75617.91;;;-147.06;46.06
54453;BME280;40363;52.270;10.546;2023-05-14T09:54:56;75576.81;;;-147.06;44.67
54453;BME280;40363;52.270;10.546;2023-05-14T09:57:24;75517.22;;;-147.06;43.36
54453;BME280;40363;52.270;10.546;2023-05-14T09:59:51;75478.19;;;-147.06;42.72
54453;BME280;40363;52.270;10.546;2023-05-14T10:02:21;75445.31;;;-147.06;42.20
54453;BME280;40363;52.270;10.546;2023-05-14T10:04:49;75504.88;;;-147.06;42.94
54453;BME280;40363;52.270;10.546;2023-05-14T10:07:18;75519.28;;;-147.06;44.43
54453;BME280;40363;52.270;10.546;2023-05-14T10:09:46;75509.00;;;-147.06;44.25
54453;BME280;40363;52.270;10.546;2023-05-14T10:12:15;75422.69;;;-147.06;44.25
54453;BME280;40363;52.270;10.546;2023-05-14T10:14:49;75461.75;;;-147.06;44.32
54453;BME280;40363;52.270;10.546;2023-05-14T10:17:20;75424.75;;;-147.06;42.30
54453;BME280;40363;52.270;10.546;2023-05-14T10:19:51;75432.97;;;-147.06;42.04
54453;BME280;40363;52.270;10.546;2023-05-14T10:22:22;75453.53;;;-147.06;41.96
54453;BME280;40363;52.270;10.546;2023-05-14T10:24:49;75476.13;;;-147.06;41.88
54453;BME280;40363;52.270;10.546;2023-05-14T10:27:17;75453.53;;;-147.06;42.29
54453;BME280;40363;52.270;10.546;2023-05-14T10:29:52;75488.44;;;-147.06;41.99
54453;BME280;40363;52.270;10.546;2023-05-14T10:32:20;75338.44;;;-147.06;41.37
54453;BME280;40363;52.270;10.546;2023-05-14T10:34:48;75352.84;;;-147.06;39.89
54453;BME280;40363;52.270;10.546;2023-05-14T10:37:16;75285.03;;;-147.06;38.98
54453;BME280;40363;52.270;10.546;2023-05-14T10:39:45;75317.91;;;-147.06;38.67
54453;BME280;40363;52.270;10.546;2023-05-14T10:42:13;75264.47;;;-147.06;37.65
54453;BME280;40363;52.270;10.546;2023-05-14T10:44:47;75342.56;;;-147.06;37.60
54453;BME280;40363;52.270;10.546;2023-05-14T10:47:15;75395.97;;;-147.06;36.08
54453;BME280;40363;52.270;10.546;2023-05-14T10:49:43;75363.09;;;-147.06;36.75
54453;BME280;40363;52.270;10.546;2023-05-14T10:52:15;75313.78;;;-147.06;36.72
54453;BME280;40363;52.270;10.546;2023-05-14T10:54:47;75356.94;;;-147.06;33.60
54453;BME280;40363;52.270;10.546;2023-05-14T10:57:14;75342.56;;;-147.06;34.42
54453;BME280;40363;52.270;10.546;2023-05-14T10:59:41;75410.38;;;-147.06;34.98
54453;BME280;40363;52.270;10.546;2023-05-14T11:02:20;75441.19;;;-147.06;36.26
54453;BME280;40363;52.270;10.546;2023-05-14T11:04:57;75472.00;;;-147.06;35.30
54453;BME280;40363;52.270;10.546;2023-05-14T11:07:27;75465.84;;;-147.06;35.41
54453;BME280;40363;52.270;10.546;2023-05-14T11:10:00;75504.88;;;-147.06;35.35
54453;BME280;40363;52.270;10.546;2023-05-14T11:12:27;75482.28;;;-147.06;36.43
54453;BME280;40363;52.270;10.546;2023-05-14T11:14:55;75445.31;;;-147.06;36.80
54453;BME280;40363;52.270;10.546;2023-05-14T11:17:24;75498.72;;;-147.06;36.20
54453;BME280;40363;52.270;10.546;2023-05-14T11:19:51;75455.56;;;-147.06;37.02
54453;BME280;40363;52.270;10.546;2023-05-14T11:22:18;75474.06;;;-147.06;35.76
54453;BME280;40363;52.270;10.546;2023-05-14T11:24:45;75441.19;;;-147.06;36.24
54453;BME280;40363;52.270;10.546;2023-05-14T11:27:11;75414.47;;;-147.06;36.58
54453;BME280;40363;52.270;10.546;2023-05-14T11:29:42;75609.69;;;-147.06;36.63
54453;BME280;40363;52.270;10.546;2023-05-14T11:32:10;75496.66;;;-147.06;36.71
54453;BME280;40363;52.270;10.546;2023-05-14T11:34:38;75420.63;;;-147.06;36.46
54453;BME280;40363;52.270;10.546;2023-05-14T11:37:06;75395.97;;;-147.06;36.58
54453;BME280;40363;52.270;10.546;2023-05-14T11:39:34;75408.31;;;-147.06;36.14
54453;BME280;40363;52.270;10.546;2023-05-14T11:42:02;75385.72;;;-147.06;35.91
54453;BME280;40363;52.270;10.546;2023-05-14T11:44:30;75352.84;;;-147.06;36.08
54453;BME280;40363;52.270;10.546;2023-05-14T11:46:57;75297.34;;;-147.06;35.79
54453;BME280;40363;52.270;10.546;2023-05-14T11:49:26;75311.75;;;-147.06;36.48
54453;BME280;40363;52.270;10.546;2023-05-14T11:51:59;75412.41;;;-147.06;37.27
54453;BME280;40363;52.270;10.546;2023-05-14T11:54:26;75350.78;;;-147.06;36.75
54453;BME280;40363;52.270;10.546;2023-05-14T11:56:53;75369.28;;;-147.06;36.53
54453;BME280;40363;52.270;10.546;2023-05-14T11:59:21;75342.56;;;-147.06;36.71
54453;BME280;40363;52.270;10.546;2023-05-14T12:01:49;75354.88;;;-147.06;36.83
54453;BME280;40363;52.270;10.546;2023-05-14T12:04:17;75408.31;;;-147.06;38.32
54453;BME280;40363;52.270;10.546;2023-05-14T12:06:46;75445.31;;;-147.06;38.50
54453;BME280;40363;52.270;10.546;2023-05-14T12:09:15;75441.19;;;-147.06;39.14
54453;BME280;40363;52.270;10.546;2023-05-14T12:11:42;75455.56;;;-147.06;39.54
54453;BME280;40363;52.270;10.546;2023-05-14T12:14:10;75490.50;;;-147.06;39.40
54453;BME280;40363;52.270;10.546;2023-05-14T12:16:39;75484.34;;;-147.06;39.99
54453;BME280;40363;52.270;10.546;2023-05-14T12:19:07;75517.22;;;-147.06;41.81
54453;BME280;40363;52.270;10.546;2023-05-14T12:21:34;75543.94;;;-147.06;39.97
54453;BME280;40363;52.270;10.546;2023-05-14T12:24:01;75527.50;;;-147.06;40.13
54453;BME280;40363;52.270;10.546;2023-05-14T12:26:31;75521.31;;;-147.06;40.32
54453;BME280;40363;52.270;10.546;2023-05-14T12:28:59;75517.22;;;-147.06;40.10
54453;BME280;40363;52.270;10.546;2023-05-14T12:31:29;75531.59;;;-147.06;41.78
54453;BME280;40363;52.270;10.546;2023-05-14T12:33:56;75548.03;;;-147.06;40.45
54453;BME280;40363;52.270;10.546;2023-05-14T12:36:23;75541.88;;;-147.06;40.87